Flight Track Log - Related Links

Times and Time Zones

All times are in EDT time to prevent confusion due to time zone crossing. See the FDX128 flight status page for this flight to view local times or setup timezone preferences in your user account.

Time Position Orientation Groundspeed Altitude Reporting Facility
EDT Latitude Longitude Course Direction KTS MPH feet Rate Location/Type
Wed 04:50:19 AM 35.0667 -90.0000 284° West 196 226 1,000  Level KMEM
Wed 04:51:37 AM 35.0833 -90.0833 284° West 280 322 4,300 3,000 Climbing KMEM
Wed 04:52:37 AM 35.1667 -90.0667 North 289 333 7,900 2,663 Climbing KMEM
Wed 04:55:02 AM 35.3614 -89.9828 19° North 338 389 13,400 2,254 Climbing Memphis Center
Wed 04:56:02 AM 35.4697 -89.9339 20° North 393 452 15,600 2,200 Climbing Memphis Center
Wed 04:57:02 AM 35.5864 -89.8822 20° North 428 493 17,800 2,150 Climbing Memphis Center
Wed 04:58:02 AM 35.6883 -89.8331 21° North 434 499 19,900 2,050 Climbing Memphis Center
Wed 04:59:02 AM 35.8089 -89.7581 27° Northeast 429 494 21,900 2,100 Climbing Memphis Center
Wed 05:00:02 AM 35.9211 -89.6700 32° Northeast 451 519 24,100 1,900 Climbing Memphis Center
Wed 05:01:02 AM 36.0372 -89.5844 31° Northeast 473 544 25,700 1,874 Climbing Memphis Center
Wed 05:06:23 AM 36.5600 -88.9330 31° Northeast 465 535 36,000 1,864 Climbing FlightAware ADS-B
Wed 05:06:56 AM 36.6080 -88.8720 46° Northeast 463 533 36,700 779 Climbing FlightAware ADS-B
Wed 05:07:40 AM 36.6740 -88.7880 46° Northeast 465 535 37,000 214 Climbing FlightAware ADS-B
Wed 05:08:20 AM 36.7350 -88.7090 46° Northeast 466 536 37,000  Level FlightAware ADS-B
Wed 05:09:04 AM 36.7990 -88.6280 45° Northeast 468 539 37,000  Level FlightAware ADS-B
Wed 05:09:44 AM 36.8620 -88.5480 45° Northeast 466 536 37,000  Level FlightAware ADS-B
Wed 05:10:26 AM 36.9240 -88.4680 46° Northeast 463 533 37,000  Level FlightAware ADS-B
Wed 05:11:32 AM 37.0120 -88.3550 46° Northeast 462 532 37,000  Level FlightAware ADS-B
Wed 05:12:14 AM 37.0840 -88.2600 46° Northeast 462 532 37,000  Level FlightAware ADS-B
Wed 05:13:12 AM 37.1630 -88.1570 46° Northeast 463 533 37,000  Level FlightAware ADS-B
Wed 05:13:48 AM 37.2250 -88.0770 46° Northeast 468 539 37,000  Level FlightAware ADS-B
Wed 05:14:30 AM 37.2890 -87.9930 46° Northeast 468 539 37,000  Level FlightAware ADS-B
Wed 05:15:36 AM 37.3640 -87.8970 45° Northeast 466 536 37,000  Level FlightAware ADS-B
Wed 05:16:52 AM 37.4830 -87.7400 46° Northeast 471 542 37,000  Level FlightAware ADS-B
Wed 05:17:40 AM 37.5720 -87.6220 46° Northeast 476 548 37,000  Level FlightAware ADS-B
Wed 05:18:22 AM 37.6370 -87.5350 47° Northeast 478 550 37,000  Level FlightAware ADS-B
Wed 05:19:01 AM 37.6990 -87.4530 46° Northeast 478 550 37,000  Level FlightAware ADS-B
Wed 05:19:42 AM 37.7600 -87.3720 46° Northeast 478 550 37,000  Level FlightAware ADS-B
Wed 05:20:25 AM 37.8270 -87.2830 46° Northeast 478 550 37,000  Level FlightAware ADS-B
Wed 05:21:09 AM 37.8940 -87.1930 47° Northeast 478 550 37,000  Level FlightAware ADS-B
Wed 05:21:50 AM 37.9600 -87.1140 43° Northeast 481 554 37,000  Level FlightAware ADS-B
Wed 05:22:26 AM 38.0210 -87.0490 40° Northeast 479 551 37,000  Level FlightAware ADS-B
Wed 05:23:05 AM 38.0870 -86.9780 40° Northeast 479 551 37,000  Level FlightAware ADS-B
Wed 05:23:50 AM 38.1630 -86.8990 39° Northeast 478 550 37,000  Level FlightAware ADS-B
Wed 05:24:22 AM 38.2170 -86.8410 40° Northeast 477 549 37,000  Level FlightAware ADS-B
Wed 05:25:06 AM 38.2900 -86.7630 40° Northeast 476 548 37,000  Level FlightAware ADS-B
Wed 05:25:42 AM 38.3510 -86.6960 41° Northeast 476 548 37,000  Level FlightAware ADS-B
Wed 05:26:30 AM 38.4300 -86.6110 40° Northeast 475 547 37,000  Level FlightAware ADS-B
Wed 05:27:12 AM 38.5040 -86.5310 40° Northeast 474 545 37,000  Level FlightAware ADS-B
Wed 05:27:56 AM 38.5770 -86.4530 40° Northeast 473 544 37,000  Level FlightAware ADS-B
Wed 05:28:33 AM 38.6390 -86.3860 40° Northeast 473 544 37,000  Level FlightAware ADS-B
Wed 05:29:15 AM 38.7080 -86.3100 41° Northeast 471 542 37,000  Level FlightAware ADS-B
Wed 05:29:52 AM 38.7690 -86.2430 41° Northeast 468 539 37,000  Level FlightAware ADS-B
Wed 05:30:35 AM 38.8170 -86.1920 40° Northeast 461 531 37,000  Level FlightAware ADS-B
Wed 05:32:12 AM 38.9750 -86.0190 40° Northeast 460 529 37,000  Level FlightAware ADS-B
Wed 05:32:56 AM 39.0660 -85.9180 41° Northeast 453 521 37,000  Level FlightAware ADS-B
Wed 05:33:36 AM 39.1310 -85.8450 41° Northeast 456 525 37,000  Level FlightAware ADS-B
Wed 05:34:20 AM 39.2030 -85.7670 40° Northeast 459 528 37,000  Level FlightAware ADS-B
Wed 05:35:00 AM 39.2680 -85.6940 41° Northeast 460 529 37,000  Level FlightAware ADS-B
Wed 05:35:44 AM 39.3390 -85.6150 41° Northeast 461 531 37,000  Level FlightAware ADS-B
Wed 05:36:24 AM 39.4030 -85.5440 41° Northeast 464 534 37,000  Level FlightAware ADS-B
Wed 05:37:05 AM 39.4710 -85.4680 41° Northeast 465 535 37,000  Level FlightAware ADS-B
Wed 05:37:47 AM 39.5370 -85.3930 41° Northeast 464 534 37,000  Level FlightAware ADS-B
Wed 05:38:25 AM 39.6000 -85.3230 41° Northeast 465 535 37,000  Level FlightAware ADS-B
Wed 05:39:09 AM 39.6700 -85.2430 41° Northeast 464 534 37,000  Level FlightAware ADS-B
Wed 05:39:49 AM 39.7360 -85.1680 41° Northeast 462 532 37,000  Level FlightAware ADS-B
Wed 05:40:25 AM 39.7930 -85.1040 41° Northeast 461 531 37,000  Level FlightAware ADS-B
Wed 05:41:05 AM 39.8580 -85.0310 41° Northeast 459 528 37,000  Level FlightAware ADS-B
Wed 05:41:49 AM 39.9270 -84.9510 42° Northeast 457 526 37,000  Level FlightAware ADS-B
Wed 05:42:29 AM 39.9920 -84.8770 41° Northeast 454 522 37,000  Level FlightAware ADS-B
Wed 05:43:13 AM 40.0610 -84.7990 41° Northeast 454 522 37,000  Level FlightAware ADS-B
Wed 05:43:54 AM 40.1260 -84.7220 42° Northeast 456 525 37,000  Level FlightAware ADS-B
Wed 05:44:34 AM 40.1890 -84.6510 41° Northeast 456 525 37,000 37 Level FlightAware ADS-B
Wed 05:46:38 AM 40.3640 -84.4480 41° Northeast 461 531 37,100  Climbing FlightAware ADS-B
Wed 05:47:26 AM 40.4640 -84.3300 42° Northeast 463 533 37,000 -71 Descending FlightAware ADS-B
Wed 05:48:02 AM 40.5200 -84.2670 41° Northeast 461 531 37,000  Level FlightAware ADS-B
Wed 05:48:51 AM 40.6000 -84.1720 42° Northeast 460 529 37,000  Level FlightAware ADS-B
Wed 05:49:24 AM 40.6510 -84.1120 42° Northeast 460 529 37,000  Level FlightAware ADS-B
Wed 05:50:07 AM 40.7200 -84.0300 42° Northeast 458 527 37,000  Level FlightAware ADS-B
Wed 05:50:44 AM 40.7770 -83.9630 42° Northeast 458 527 37,000  Level FlightAware ADS-B
Wed 05:51:32 AM 40.8520 -83.8730 42° Northeast 456 525 37,000  Level FlightAware ADS-B
Wed 05:52:12 AM 40.9160 -83.7990 41° Northeast 455 524 37,000  Level FlightAware ADS-B
Wed 05:52:50 AM 40.9730 -83.7300 42° Northeast 455 524 37,000  Level FlightAware ADS-B
Wed 05:53:36 AM 41.0470 -83.6420 42° Northeast 458 527 37,000  Level FlightAware ADS-B
Wed 05:54:12 AM 41.1030 -83.5730 43° Northeast 462 532 37,000 -160 Level FlightAware ADS-B
Wed 05:54:51 AM 41.1660 -83.4990 41° Northeast 466 536 36,800 -500 Descending FlightAware ADS-B
Wed 05:55:36 AM 41.2380 -83.4120 42° Northeast 469 540 36,300 -732 Descending FlightAware ADS-B
Wed 05:56:13 AM 41.2970 -83.3400 43° Northeast 468 539 35,800 -711 Descending FlightAware ADS-B
Wed 05:56:52 AM 41.3600 -83.2650 42° Northeast 469 540 35,400 -675 Descending FlightAware ADS-B
Wed 05:57:33 AM 41.4260 -83.1840 43° Northeast 472 543 34,900 -667 Descending FlightAware ADS-B
Wed 05:58:13 AM 41.4920 -83.1040 42° Northeast 473 544 34,500 -615 Descending FlightAware ADS-B
Wed 05:58:51 AM 41.5520 -83.0310 42° Northeast 471 542 34,100 -690 Descending FlightAware ADS-B
Wed 05:59:40 AM 41.6260 -82.9400 43° Northeast 471 542 33,500 -725 Descending FlightAware ADS-B
Wed 06:00:22 AM 41.6950 -82.8550 43° Northeast 475 547 33,000 -349 Descending FlightAware ADS-B
Wed 06:01:06 AM 41.7710 -82.7610 43° Northeast 469 540 33,000  Level FlightAware ADS-B
Wed 06:01:46 AM 41.8340 -82.6830 43° Northeast 469 540 33,000  Level FlightAware ADS-B
Wed 06:02:30 AM 41.9020 -82.5980 43° Northeast 469 540 33,000  Level FlightAware ADS-B
Wed 06:03:10 AM 41.9660 -82.5200 42° Northeast 469 540 33,000  Level FlightAware ADS-B
Wed 06:03:50 AM 42.0320 -82.4370 43° Northeast 468 539 33,000  Level FlightAware ADS-B
Wed 06:04:34 AM 42.1010 -82.3510 43° Northeast 471 542 33,000 -214 Level FlightAware ADS-B
Wed 06:05:14 AM 42.1610 -82.2750 43° Northeast 471 542 32,700 -500 Descending FlightAware ADS-B
Wed 06:05:58 AM 42.2340 -82.1830 43° Northeast 469 540 32,300 -565 Descending FlightAware ADS-B
Wed 06:06:39 AM 42.2970 -82.1040 43° Northeast 462 532 31,900 -659 Descending FlightAware ADS-B
Wed 06:07:20 AM 42.3610 -82.0230 43° Northeast 461 531 31,400 -635 Descending FlightAware ADS-B
Wed 06:08:04 AM 42.4260 -81.9400 43° Northeast 458 527 31,000 -538 Descending FlightAware ADS-B
Wed 06:08:38 AM 42.4840 -81.8660 43° Northeast 456 525 30,700 -632 Descending FlightAware ADS-B
Wed 06:09:20 AM 42.5450 -81.7830 45° Northeast 450 518 30,200 -628 Descending FlightAware ADS-B
Wed 06:10:04 AM 42.6020 -81.6980 48° Northeast 448 516 29,800 -571 Descending FlightAware ADS-B
Wed 06:10:44 AM 42.6620 -81.6060 48° Northeast 447 514 29,400 -1,113 Descending FlightAware ADS-B
Wed 06:11:41 AM 42.7350 -81.4960 48° Northeast 439 505 28,000 -1,696 Descending FlightAware ADS-B
Wed 06:12:16 AM 42.7820 -81.4250 48° Northeast 429 494 26,800 -1,425 Descending FlightAware ADS-B
Wed 06:13:01 AM 42.8430 -81.3340 48° Northeast 437 503 26,100 -857 Descending FlightAware ADS-B
Wed 06:13:47 AM 42.9030 -81.2410 49° Northeast 428 493 25,500 -767 Descending FlightAware ADS-B
Wed 06:14:27 AM 42.9560 -81.1600 48° Northeast 429 494 25,000 -646 Descending FlightAware ADS-B
Wed 06:14:52 AM 42.9840 -81.1190 47° Northeast 429 494 24,800 -261 Descending FlightAware ADS-B
Wed 06:15:59 AM 43.0680 -80.9900 48° Northeast 428 493 24,600 -715 Descending FlightAware ADS-B
Wed 06:17:23 AM 43.1550 -80.8290 53° Northeast 417 480 23,000 -1,349 Descending FlightAware ADS-B
Wed 06:18:08 AM 43.2310 -80.6940 52° Northeast 414 476 21,700 -1,765 Descending FlightAware ADS-B
Wed 06:18:48 AM 43.2700 -80.6240 53° Northeast 410 472 20,500 -1,977 Descending FlightAware ADS-B
Wed 06:19:36 AM 43.3260 -80.5240 52° Northeast 401 461 18,800 -2,225 Descending FlightAware ADS-B
Wed 06:20:17 AM 43.3700 -80.4440 53° Northeast 398 458 17,200 -2,125 Descending FlightAware ADS-B
Wed 06:21:12 AM 43.4300 -80.3350 53° Northeast 382 440 15,400 -1,516 Descending FlightAware ADS-B
Wed 06:21:52 AM 43.4730 -80.2590 52° Northeast 371 427 14,800 -870 Descending FlightAware ADS-B
Wed 06:22:21 AM 43.5010 -80.2060 54° Northeast 372 428 14,400 -1,109 Descending FlightAware ADS-B
Wed 06:23:24 AM 43.5460 -80.0560 67° East 347 399 13,100 -1,248 Descending FlightAware ADS-B
Wed 06:24:02 AM 43.5660 -79.9780 70° East 311 358 12,300 -1,111 Descending FlightAware ADS-B
Wed 06:24:45 AM 43.5860 -79.9050 69° East 281 323 11,600 -1,029 Descending FlightAware ADS-B
Wed 06:25:12 AM 43.6040 -79.8660 57° Northeast 266 306 11,100 -761 Descending FlightAware ADS-B
Wed 06:25:56 AM 43.6480 -79.8230 35° Northeast 263 303 10,700 -393 Descending FlightAware ADS-B
Wed 06:26:13 AM 43.6650 -79.8080 33° Northeast 259 298 10,700  Level FlightAware ADS-B
Wed 06:26:25 AM 43.6800 -79.8050 North 259 298 10,700 -556 Level FlightAware ADS-B
Wed 06:27:07 AM 43.7290 -79.8110 355° North 253 291 10,200 -806 Descending FlightAware ADS-B
Wed 06:27:32 AM 43.7550 -79.8150 354° North 249 287 9,800 -923 Descending FlightAware ADS-B
Wed 06:27:59 AM 43.7850 -79.8080 10° North 262 302 9,400 -1,000 Descending FlightAware ADS-B
Wed 06:28:14 AM 43.7970 -79.7900 47° Northeast 266 306 9,100 -1,200 Descending FlightAware ADS-B
Wed 06:28:29 AM 43.8010 -79.7650 77° East 269 310 8,800 -1,467 Descending FlightAware ADS-B
Wed 06:28:59 AM 43.7860 -79.7190 114° Southeast 267 307 8,000 -1,500 Descending FlightAware ADS-B
Wed 06:29:29 AM 43.7650 -79.6770 125° Southeast 264 304 7,300 -1,350 Descending FlightAware ADS-B
Wed 06:29:39 AM 43.7620 -79.6610 105° East 259 298 7,100 -1,371 Descending FlightAware ADS-B
Wed 06:30:04 AM 43.7730 -79.6240 68° East 251 289 6,500 -1,418 Descending FlightAware ADS-B
Wed 06:30:34 AM 43.8000 -79.5940 39° Northeast 244 281 5,800 -700 Descending FlightAware ADS-B
Wed 06:31:04 AM 43.8290 -79.5760 24° Northeast 228 262 5,800 -100 Level FlightAware ADS-B
Wed 06:31:34 AM 43.8580 -79.5500 33° Northeast 250 288 5,700 -545 Descending FlightAware ADS-B
Wed 06:31:59 AM 43.8790 -79.5210 45° Northeast 250 288 5,300 -982 Descending FlightAware ADS-B
Wed 06:32:29 AM 43.9040 -79.4880 44° Northeast 242 278 4,800 -764 Descending FlightAware ADS-B
Wed 06:32:54 AM 43.9230 -79.4640 42° Northeast 231 266 4,600 -533 Descending FlightAware ADS-B
Wed 06:33:14 AM 43.9370 -79.4440 46° Northeast 220 253 4,400 -800 Descending FlightAware ADS-B
Wed 06:33:39 AM 43.9550 -79.4190 45° Northeast 212 244 4,000 -1,029 Descending FlightAware ADS-B
Wed 06:33:49 AM 43.9580 -79.4040 74° East 214 246 3,800 -400 Descending FlightAware ADS-B
Wed 06:34:09 AM 43.9510 -79.3790 111° Southeast 218 251 3,800 -133 Level FlightAware ADS-B
Wed 06:34:34 AM 43.9320 -79.3550 138° Southeast 215 247 3,700 -150 Descending FlightAware ADS-B
Wed 06:34:49 AM 43.9180 -79.3480 160° South 210 242 3,700  Level FlightAware ADS-B
Wed 06:35:14 AM 43.8950 -79.3510 185° South 209 241 3,700  Level FlightAware ADS-B
Wed 06:35:24 AM 43.8860 -79.3580 209° Southwest 204 235 3,700  Level FlightAware ADS-B
Wed 06:35:54 AM 43.8660 -79.3830 222° Southwest 187 215 3,700  Level FlightAware ADS-B
Wed 06:36:19 AM 43.8520 -79.4050 229° Southwest 179 206 3,700  Level FlightAware ADS-B
Wed 06:36:49 AM 43.8340 -79.4300 225° Southwest 179 206 3,700  Level FlightAware ADS-B
Wed 06:36:59 AM 43.8290 -79.4390 232° Southwest 179 206 3,700 -150 Level FlightAware ADS-B
Wed 06:37:29 AM 43.8110 -79.4640 225° Southwest 179 206 3,600 -450 Descending FlightAware ADS-B
Wed 06:37:39 AM 43.8060 -79.4720 229° Southwest 179 206 3,400 -1,200 Descending FlightAware ADS-B
Wed 06:38:09 AM 43.7890 -79.4970 227° Southwest 175 201 2,800 -885 Descending FlightAware ADS-B
Wed 06:38:40 AM 43.7730 -79.5200 226° Southwest 174 200 2,500 -787 Descending FlightAware ADS-B
Wed 06:39:10 AM 43.7550 -79.5460 226° Southwest 175 201 2,000 -1,000 Descending FlightAware ADS-B
Wed 06:39:34 AM 43.7410 -79.5660 226° Southwest 179 206 1,600 -1,000 Descending FlightAware ADS-B
Wed 06:40:04 AM 43.7240 -79.5910 227° Southwest 171 197 1,100 -800 Descending FlightAware ADS-B
Wed 06:40:34 AM 43.7090 -79.6130 227° Southwest 157 181 800 -493 Descending FlightAware ADS-B
Wed 06:41:17 AM 43.6900 -79.6420 228° Southwest 159 183 500 -419 Descending FlightAware ADS-B
Wed 06:44:14 AM 43.6820 -79.6590 237° Southwest 8 9 -169 Descending FlightAware ADS-B
Wed 06:44:24 AM 43.6830 -79.6580 36° Northeast 7 8  Level FlightAware ADS-B
Wed 06:45:14 AM 43.6830 -79.6590 270° West  Level FlightAware ADS-B

Login

Don't have an account? Register now (free) for customized features, flight alerts, and more!